Terminal Aerodrome Forecast
Issued by NWS

Home | Current Version | Previous Version | Text Only | Print | Product List | Glossary On
Versions: 1 2 3 4 5 6 7 8 9 10 11 12 13 14 15 16 17 18 19
000
FTUS43 KMQT 231100
TAFSAW
TAF
KSAW 231133Z 2312/2412 16012KT 1/4SM -DZ FG OVC002
     FM231700 18012KT 1SM -DZ BR OVC003
     FM240000 16006KT 1/2SM -RA FG OVC002
     FM241000 02005KT 1/2SM -RA FG OVC002
      AMD LTD TO CLD VIS AND WIND 2403/2411=

USA.gov is the U.S. government's official web portal to all federal, state and local government web resources and services.